Warning: Javascript must be enabled to use all the features on this page!


Page Loading - Please Wait...

Click to hideNews Bulletins
  • Please see news on new formats
  • UPDATE, 11/9: As of November 8, the USGS has successfully restored all of the operational gages that stopped transmitting due to an issue with the satellite telemetry system that records and transmits data. The USGS will now focus on restoring other equipment that experienced the telemetry issues, including about 85 rapid deployment gages that are used periodically for emergency response. Read more
  • Full News RSS icon

USGS 02110815 WACCAMAW R NR HAGLEY LAND. NR PAWLEYS ISLAND, SC

PROVISIONAL DATA SUBJECT TO REVISION

Click to hidestation-specific text
Waccamaw Regional Council of Governments


This USGS monitoring station is funded in cooperation with the Waccamaw Regional Council of Governments.

This station managed by the South Atlantic WSC Conway Field Office.

Available Parameters Available Period
All 6 Available Parameters for this site
  
00010 Temperature, water 2007-10-01  2018-11-17
00060 Discharge 1994-10-02  2000-09-26
00065 Gage height 2007-10-01  2018-11-17
00095 Specific cond at 25C 2013-02-21  2018-11-17
00300 Dissolved oxygen 2007-10-02  2018-11-17
00480 Salinity 2013-05-02  2018-09-17

Graph
Graph w/ stats
Graph w/o stats
Graph w/ (up to 3) parms
Table
Tab-separated
Days  (13)
 

  -- or --
Begin date
 

End date
 

Summary of all available data for this site
Instantaneous-data availability statement
Gage height, feet
TIMESep 15Sep 16Sep 17Sep 18Sep 19Sep 20Sep 21Sep 22Sep 23Sep 24Sep 25Sep 26Sep 27Sep 28
00:00 EDT15.83P  16.83P  16.70P  15.65P  15.30P  15.80P  16.77P  17.41P  18.04P  18.83P  19.67P  20.01P  20.17P  20.03P  
00:15 EDT16.04P  17.11P  16.75P  15.63P  15.23P  15.68P  16.63P  17.28P  17.92P  18.72P  19.59P  19.95P  20.15P  20.04P  
00:30 EDT16.24P  17.36P  16.82P  15.62P  15.19P  15.59P  16.50P  17.15P  17.81P  18.64P  19.51P  19.89P  20.12P  20.04P  
00:45 EDT16.53P  17.52P  17.01P  15.64P  15.15P  15.50P  16.37P  17.02P  17.69P  18.55P  19.43P  19.84P  20.07P  20.02P  
01:00 EDT16.69P  17.69P  17.18P  15.69P  15.13P  15.42P  16.27P  16.89P  17.58P  18.44P  19.36P  19.77P  20.02P  19.99P  
01:15 EDT16.90P  17.84P  17.36P  15.79P  15.13P  15.36P  16.18P  16.75P  17.48P  18.36P  19.29P  19.71P  19.97P  19.95P  
01:30 EDT17.04P  17.98P  17.50P  15.92P  15.16P  15.30P  16.08P  16.62P  17.36P  18.27P  19.22P  19.65P  19.92P  19.92P  
01:45 EDT17.18P  18.10P  17.63P  16.06P  15.22P  15.25P  15.98P  16.51P  17.24P  18.20P  19.15P  19.59P  19.86P  19.88P  
02:00 EDT17.27P  18.20P  17.77P  16.24P  15.31P  15.24P  15.90P  16.41P  17.14P  18.11P  19.08P  19.51P  19.80P  19.83P  
02:15 EDT17.36P  18.27P  17.87P  16.41P  15.47P  15.25P  15.82P  16.32P  17.04P  18.03P  19.01P  19.45P  19.74P  19.78P  
02:30 EDT17.45P  18.37P  17.98P  16.59P  15.63P  15.32P  15.77P  16.23P  16.94P  17.97P  18.96P  19.40P  19.67P  19.73P  
02:45 EDT17.50P  18.42P  18.07P  16.76P  15.82P  15.40P  15.74P  16.16P  16.85P  17.89P  18.89P  19.34P  19.62P  19.68P  
03:00 EDT17.52P  18.49P  18.16P  16.92P  16.05P  15.55P  15.74P  16.09P  16.77P  17.82P  18.82P  19.28P  19.56P  19.62P  
03:15 EDT17.51P  18.53P  18.21P  17.08P  16.28P  15.74P  15.78P  16.05P  16.71P  17.75P  18.77P  19.22P  19.51P  19.58P  
03:30 EDT17.53P  18.55P  18.27P  17.18P  16.50P  15.99P  15.89P  16.01P  16.64P  17.70P  18.70P  19.17P  19.45P  19.52P  
03:45 EDT17.49P  18.57P  18.30P  17.32P  16.70P  16.23P  16.06P  16.01P  16.58P  17.64P  18.65P  19.10P  19.39P  19.46P  
04:00 EDT17.41P  18.56P  18.31P  17.40P  16.87P  16.49P  16.25P  16.04P  16.53P  17.58P  18.59P  19.05P  19.33P  19.42P  
04:15 EDT17.29P  18.53P  18.33P  17.47P  17.06P  16.73P  16.49P  16.10P  16.51P  17.53P  18.53P  18.99P  19.28P  19.36P  
04:30 EDT17.16P  18.48P  18.31P  17.53P  17.20P  16.96P  16.76P  16.21P  16.50P  17.50P  18.49P  18.94P  19.22P  19.31P  
04:45 EDT17.04P  18.39P  18.29P  17.56P  17.31P  17.19P  17.03P  16.36P  16.54P  17.47P  18.44P  18.90P  19.18P  19.24P  
05:00 EDT16.89P  18.32P  18.25P  17.58P  17.42P  17.36P  17.25P  16.57P  16.58P  17.45P  18.41P  18.84P  19.13P  19.19P  
05:15 EDT16.73P  18.21P  18.19P  17.60P  17.52P  17.49P  17.47P  16.83P  16.72P  17.45P  18.37P  18.80P  19.07P  19.16P  
05:30 EDT16.57P  18.10P  18.10P  17.58P  17.59P  17.59P  17.66P  17.10P  16.92P  17.46P  18.34P  18.76P  19.02P  19.08P  
05:45 EDT16.37P  17.99P  18.01P  17.53P  17.66P  17.69P  17.81P  17.31P  17.14P  17.51P  18.32P  18.73P  18.98P  19.04P  
06:00 EDT16.21P  17.85P  17.90P  17.49P  17.67P  17.75P  17.93P  17.51P  17.38P  17.56P  18.31P  18.69P  18.93P  18.99P  
06:15 EDT16.03P  17.71P  17.77P  17.40P  17.66P  17.81P  18.04P  17.68P  17.61P  17.70P  18.31P  18.67P  18.89P  18.94P  
06:30 EDT15.88P  17.57P  17.64P  17.31P  17.63P  17.83P  18.12P  17.83P  17.79P  17.84P  18.32P  18.65P  18.85P  18.89P  
06:45 EDT15.74P  17.47P  17.52P  17.20P  17.56P  17.84P  18.20P  17.94P  17.94P  18.01P  18.36P  18.65P  18.82P  18.86P  
07:00 EDT15.62P  17.35P  17.41P  17.07P  17.48P  17.82P  18.24P  18.05P  18.10P  18.17P  18.43P  18.65P  18.80P  18.81P  
07:15 EDT15.48P  17.23P  17.28P  16.93P  17.38P  17.78P  18.28P  18.14P  18.26P  18.31P  18.52P  18.68P  18.78P  18.78P  
07:30 EDT15.36P  17.07P  17.18P  16.81P  17.27P  17.70P  18.28P  18.23P  18.40P  18.46P  18.63P  18.73P  18.78P  18.76P  
07:45 EDT15.26P  16.95P  17.05P  16.69P  17.16P  17.63P  18.27P  18.29P  18.53P  18.59P  18.76P  18.79P  18.78P  18.74P  
08:00 EDT15.14P  16.83P  16.94P  16.56P  17.01P  17.54P  18.22P  18.35P  18.64P  18.72P  18.89P  18.89P  18.79P  18.72P  
08:15 EDT15.02P  16.74P  16.83P  16.43P  16.87P  17.43P  18.14P  18.38P  18.73P  18.83P  19.03P  18.99P  18.84P  18.71P  
08:30 EDT14.95P  16.63P  16.74P  16.29P  16.72P  17.31P  18.08P  18.38P  18.80P  18.96P  19.16P  19.11P  18.91P  18.71P  
08:45 EDT14.90P  16.50P  16.64P  16.17P  16.57P  17.18P  17.98P  18.37P  18.86P  19.06P  19.31P  19.22P  18.99P  18.73P  
09:00 EDT14.84P  16.43P  16.53P  16.05P  16.43P  17.05P  17.88P  18.33P  18.89P  19.14P  19.43P  19.35P  19.10P  18.77P  
09:15 EDT14.84P  16.35P  16.40P  15.92P  16.30P  16.90P  17.78P  18.28P  18.89P  19.21P  19.56P  19.47P  19.20P  18.82P  
09:30 EDT14.92P  16.27P  16.33P  15.79P  16.17P  16.75P  17.66P  18.23P  18.88P  19.28P  19.67P  19.60P  19.32P  18.89P  
09:45 EDT15.04P  16.19P  16.24P  15.71P  16.05P  16.62P  17.52P  18.15P  18.84P  19.32P  19.77P  19.72P  19.44P  19.00P  
10:00 EDT15.18P  16.14P  16.14P  15.59P  15.91P  16.48P  17.39P  18.06P  18.79P  19.34P  19.84P  19.82P  19.56P  19.10P  
10:15 EDT15.46P  16.12P  16.08P  15.50P  15.78P  16.34P  17.28P  17.96P  18.73P  19.34P  19.89P  19.92P  19.68P  19.22P  
10:30 EDT15.81P  16.13P  16.03P  15.43P  15.66P  16.20P  17.15P  17.86P  18.65P  19.32P  19.92P  19.99P  19.78P  19.33P  
10:45 EDT16.17P  16.18P  15.99P  15.33P  15.55P  16.09P  17.03P  17.75P  18.56P  19.28P  19.94P  20.05P  19.88P  19.44P  
11:00 EDT16.42P  16.26P  15.93P  15.25P  15.46P  15.96P  16.90P  17.64P  18.47P  19.23P  19.93P  20.08P  19.98P  19.54P  
11:15 EDT16.71P  16.44P  15.90P  15.18P  15.36P  15.85P  16.76P  17.53P  18.38P  19.17P  19.92P  20.10P  20.05P  19.63P  
11:30 EDT16.99P  16.73P  15.92P  15.14P  15.27P  15.73P  16.65P  17.42P  18.28P  19.11P  19.88P  20.09P  20.11P  19.72P  
11:45 EDT17.18P  17.03P  15.92P  15.09P  15.19P  15.61P  16.52P  17.30P  18.19P  19.04P  19.85P  20.07P  20.14P  19.80P  
12:00 EDT17.42P  17.31P  15.95P  15.09P  15.12P  15.51P  16.40P  17.18P  18.10P  18.97P  19.80P  20.04P  20.15P  19.87P  
12:15 EDT17.58P  17.55P  16.02P  15.10P  15.06P  15.40P  16.30P  17.07P  18.00P  18.89P  19.74P  20.00P  20.14P  19.91P  
12:30 EDT17.71P  17.69P  16.15P  15.13P  15.03P  15.33P  16.18P  16.95P  17.90P  18.83P  19.68P  19.95P  20.12P  19.94P  
12:45 EDT17.84P  17.86P  16.23P  15.17P  15.02P  15.25P  16.07P  16.83P  17.81P  18.75P  19.62P  19.90P  20.10P  19.96P  
13:00 EDT17.97P  18.03P  16.39P  15.29P  15.03P  15.19P  15.98P  16.72P  17.72P  18.68P  19.55P  19.86P  20.06P  19.96P  
13:15 EDT18.10P  18.16P  16.56P  15.43P  15.10P  15.14P  15.88P  16.61P  17.62P  18.61P  19.48P  19.80P  20.03P  19.95P  
13:30 EDT18.20P  18.27P  16.74P  15.59P  15.22P  15.13P  15.78P  16.49P  17.53P  18.55P  19.42P  19.74P  20.00P  19.92P  
13:45 EDT18.30P  18.40P  16.94P  15.78P  15.38P  15.13P  15.72P  16.41P  17.45P  18.49P  19.36P  19.69P  19.93P  19.88P  
14:00 EDT18.40P  18.52P  17.20P  16.03P  15.56P  15.16P  15.65P  16.33P  17.37P  18.41P  19.29P  19.63P  19.88P  19.86P  
14:15 EDT18.49P  18.58P  17.38P  16.23P  15.77P  15.23P  15.59P  16.24P  17.27P  18.36P  19.23P  19.58P  19.83P  19.81P  
14:30 EDT18.58P  18.67P  17.55P  16.46P  16.02P  15.35P  15.55P  16.17P  17.20P  18.29P  19.17P  19.51P  19.76P  19.76P  
14:45 EDT18.66P  18.77P  17.71P  16.68P  16.26P  15.52P  15.54P  16.09P  17.12P  18.24P  19.11P  19.47P  19.72P  19.72P  
15:00 EDT18.75P  18.85P  17.85P  16.91P  16.52P  15.73P  15.56P  16.05P  17.06P  18.16P  19.05P  19.42P  19.65P  19.66P  
15:15 EDT18.81P  18.90P  17.96P  17.11P  16.78P  15.99P  15.61P  16.00P  16.99P  18.11P  19.01P  19.35P  19.60P  19.60P  
15:30 EDT18.84P  18.95P  18.07P  17.28P  17.01P  16.28P  15.76P  15.98P  16.94P  18.06P  18.94P  19.32P  19.56P  19.54P  
15:45 EDT18.87P  19.00P  18.17P  17.49P  17.23P  16.56P  15.94P  15.97P  16.90P  18.01P  18.89P  19.26P  19.50P  19.48P  
16:00 EDT18.87P  19.05P  18.25P  17.62P  17.41P  16.86P  16.17P  15.98P  16.86P  17.96P  18.84P  19.21P  19.45P  19.43P  
16:15 EDT18.83P  19.09P  18.29P  17.72P  17.58P  17.11P  16.41P  16.04P  16.81P  17.92P  18.80P  19.16P  19.39P  19.37P  
16:30 EDT18.77P  19.09P  18.35P  17.80P  17.72P  17.34P  16.68P  16.19P  16.81P  17.87P   19.11P  19.35P  19.32P  
16:45 EDT18.69P  19.07P  18.37P  17.87P  17.83P  17.52P  17.00P  16.36P  16.81P  17.84P   19.06P  19.28P  19.26P  
17:00 EDT18.55P  19.05P  18.38P  17.91P  17.94P  17.68P  17.27P  16.63P  16.82P  17.80P   19.01P  19.22P  19.20P  
17:15 EDT18.42P  19.01P  18.37P  17.95P  18.04P  17.83P  17.52P  16.92P  16.88P  17.78P   18.96P  19.18P  19.16P  
17:30 EDT18.29P  18.94P  18.36P  17.99P  18.11P  17.94P  17.73P  17.19P  16.98P  17.77P   18.93P  19.13P  19.10P  
17:45 EDT18.13P  18.84P  18.31P  18.01P  18.17P  18.04P  17.90P  17.43P  17.14P  17.79P  18.51P  18.90P  19.09P  19.05P  
18:00 EDT17.99P  18.80P  18.24P  18.01P  18.22P  18.14P  18.05P  17.65P  17.34P  17.82P  18.50P  18.85P  19.04P  19.00P  
18:15 EDT17.83P  18.70P  18.16P  17.97P  18.26P  18.22P  18.19P  17.86P  17.54P  17.89P  18.49P  18.82P  19.01P  18.95P  
18:30 EDT17.68P  18.55P  18.06P  17.92P  18.29P  18.29P  18.31P  18.03P  17.75P  18.01P  18.48P  18.80P  18.95P  18.92P  
18:45 EDT17.55P  18.44P  17.95P  17.86P  18.29P  18.35P  18.42P  18.20P  17.96P  18.17P  18.49P  18.78P  18.92P  18.85P  
19:00 EDT17.41P  18.38P  17.83P  17.79P  18.25P  18.39P  18.51P  18.36P  18.13P  18.34P  18.52P  18.77P  18.91P  18.81P  
19:15 EDT17.27P  18.36P  17.70P  17.69P  18.20P  18.42P  18.60P  18.51P  18.31P  18.50P  18.58P  18.76P  18.87P  18.79P  
19:30 EDT17.13P  18.21P  17.56P  17.57P  18.14P  18.45P  18.69P  18.65P  18.49P  18.68P  18.67P  18.77P  18.86P  18.74P  
19:45 EDT16.99P  18.04P  17.41P  17.44P  18.07P  18.45P  18.76P  18.76P  18.66P  18.84P  18.79P  18.81P  18.85P  18.70P  
20:00 EDT16.86P  17.92P  17.27P  17.31P  17.98P  18.45P  18.82P  18.86P  18.82P  19.00P  18.92P  18.86P  18.84P  18.69P  
20:15 EDT16.73P  17.81P  17.14P  17.19P  17.88P  18.42P  18.85P  18.95P  18.97P  19.17P  19.05P  18.94P  18.86P  18.66P  
20:30 EDT16.63P  17.75P  16.99P  17.06P  17.76P  18.38P  18.86P  19.01P  19.10P  19.34P  19.18P  19.03P  18.90P  18.65P  
20:45 EDT16.51P  17.56P  16.84P  16.91P  17.64P  18.32P  18.86P  19.06P  19.22P  19.49P  19.33P  19.13P  18.95P  18.64P  
21:00 EDT16.42P  17.44P  16.72P  16.76P  17.49P  18.25P  18.83P  19.07P  19.32P  19.63P  19.47P  19.25P  19.02P  18.65P  
21:15 EDT16.33P  17.35P  16.58P  16.61P  17.34P  18.16P  18.78P  19.07P  19.39P  19.75P  19.59P  19.36P  19.10P  18.67P  
21:30 EDT16.25P  17.25P  16.44P  16.47P  17.20P  18.04P  18.70P  19.05P  19.44P  19.84P  19.72P  19.49P  19.20P  18.73P  
21:45 EDT16.17P  17.18P  16.33P  16.34P  17.05P  17.94P  18.60P  18.99P  19.47P  19.92P  19.83P  19.60P  19.31P  18.79P  
22:00 EDT16.10P  17.13P  16.23P  16.20P  16.91P  17.82P  18.50P  18.92P  19.45P  19.97P  19.92P  19.73P  19.41P  18.86P  
22:15 EDT16.06P  17.07P  16.14P  16.07P  16.75P  17.67P  18.37P  18.84P  19.42P  20.00P  20.00P  19.84P  19.50P  18.93P  
22:30 EDT16.04P  16.97P  16.05P  15.92P  16.59P  17.56P  18.24P  18.73P  19.36P  20.00P  20.07P  19.94P  19.60P  19.03P  
22:45 EDT16.06P  16.86P  15.95P  15.79P  16.45P  17.41P  18.10P  18.62P  19.29P  19.96P  20.11P  20.03P  19.70P  19.10P  
23:00 EDT16.14P  16.81P  15.87P  15.66P  16.32P  17.28P  17.95P  18.50P  19.20P  19.92P  20.12P  20.10P  19.79P  19.18P  
23:15 EDT16.24P  16.75P  15.81P  15.55P  16.18P  17.14P  17.81P  18.38P  19.11P  19.87P  20.11P  20.15P  19.87P  19.25P  
23:30 EDT16.43P  16.71P  15.75P  15.46P  16.06P  17.03P  17.67P  18.27P  19.02P  19.81P  20.08P  20.17P  19.94P  19.32P  
23:45 EDT16.64P  16.67P  15.70P  15.38P  15.92P  16.90P  17.54P  18.15P  18.92P  19.74P  20.06P  20.18P  20.00P  19.39P  
COUNT9696969696969696969691969696
MAX18.8719.0918.3818.0118.2918.4518.8619.0719.4720.0020.1220.1820.1720.04
MIN14.8416.1215.7015.0915.0215.1315.5415.9716.5017.4518.3118.6518.7818.64

Explanation
  P  Provisional data subject to revision.